Terminal Aerodrome Forecast
Issued by NWS

Home | Current Version | Previous Version | Text Only | Print | Product List | Glossary On
Versions: 1 2 3 4 5 6 7 8 9 10 11 12 13 14 15 16 17 18 19 20 21
000
FTUS43 KBIS 050548
TAFDIK
TAF
KDIK 050548Z 0506/0606 05011KT 4SM BR OVC004
      TEMPO 0508/0509 3SM -SHRA BR BKN008 OVC011
     FM050900 06011KT 4SM -SHRA BR VCTS BKN010 OVC050CB
     FM051200 08011KT 5SM BR VCSH BKN006 OVC012
     FM051600 10014G19KT P6SM VCSH BKN020 OVC035
     FM052000 11016G24KT P6SM SCT035 SCT090
     FM060100 12009KT P6SM SCT045=

USA.gov is the U.S. government's official web portal to all federal, state and local government web resources and services.